sensor_id;sensor_type;location;lat;lon;timestamp;P1;durP1;ratioP1;P2;durP2;ratioP2
46729;SDS011;32476;50.002;11.854;2023-07-29T00:00:03;1999.90;;;999.90;;
46729;SDS011;32476;50.002;11.854;2023-07-29T00:02:33;1999.90;;;999.90;;
46729;SDS011;32476;50.002;11.854;2023-07-29T00:04:59;1999.90;;;999.90;;
46729;SDS011;32476;50.002;11.854;2023-07-29T00:07:25;1999.90;;;999.90;;
46729;SDS011;32476;50.002;11.854;2023-07-29T00:09:53;1999.90;;;999.90;;
46729;SDS011;32476;50.002;11.854;2023-07-29T00:12:19;1999.90;;;999.90;;
46729;SDS011;32476;50.002;11.854;2023-07-29T00:14:45;1999.90;;;999.90;;
46729;SDS011;32476;50.002;11.854;2023-07-29T00:17:12;1999.90;;;999.90;;
46729;SDS011;32476;50.002;11.854;2023-07-29T00:19:38;6.27;;;5.37;;
46729;SDS011;32476;50.002;11.854;2023-07-29T00:22:04;5.50;;;5.00;;
46729;SDS011;32476;50.002;11.854;2023-07-29T00:24:32;5.50;;;5.00;;
46729;SDS011;32476;50.002;11.854;2023-07-29T00:26:58;7.63;;;4.70;;
46729;SDS011;32476;50.002;11.854;2023-07-29T00:29:24;4.87;;;4.07;;
46729;SDS011;32476;50.002;11.854;2023-07-29T00:31:51;7.80;;;4.77;;
46729;SDS011;32476;50.002;11.854;2023-07-29T00:34:17;4.97;;;4.47;;
46729;SDS011;32476;50.002;11.854;2023-07-29T00:36:47;4.90;;;4.40;;
46729;SDS011;32476;50.002;11.854;2023-07-29T00:39:15;5.03;;;4.57;;
46729;SDS011;32476;50.002;11.854;2023-07-29T00:41:41;5.97;;;4.70;;
46729;SDS011;32476;50.002;11.854;2023-07-29T00:44:07;5.20;;;4.70;;
46729;SDS011;32476;50.002;11.854;2023-07-29T00:46:34;6.00;;;5.17;;
46729;SDS011;32476;50.002;11.854;2023-07-29T00:49:03;5.50;;;4.67;;
46729;SDS011;32476;50.002;11.854;2023-07-29T00:51:29;5.47;;;3.90;;
46729;SDS011;32476;50.002;11.854;2023-07-29T00:53:56;5.27;;;4.30;;
46729;SDS011;32476;50.002;11.854;2023-07-29T00:56:22;5.27;;;4.77;;
46729;SDS011;32476;50.002;11.854;2023-07-29T00:58:48;5.47;;;4.43;;
46729;SDS011;32476;50.002;11.854;2023-07-29T01:01:18;9.10;;;5.43;;
46729;SDS011;32476;50.002;11.854;2023-07-29T01:03:44;5.93;;;5.33;;
46729;SDS011;32476;50.002;11.854;2023-07-29T01:09:10;6.50;;;5.67;;
46729;SDS011;32476;50.002;11.854;2023-07-29T01:12:01;4.73;;;4.30;;
46729;SDS011;32476;50.002;11.854;2023-07-29T01:14:55;7.73;;;4.43;;
46729;SDS011;32476;50.002;11.854;2023-07-29T01:17:36;5.43;;;4.47;;
46729;SDS011;32476;50.002;11.854;2023-07-29T01:20:16;4.17;;;3.70;;
46729;SDS011;32476;50.002;11.854;2023-07-29T01:22:45;4.87;;;3.37;;
46729;SDS011;32476;50.002;11.854;2023-07-29T01:29:01;4.53;;;3.37;;
46729;SDS011;32476;50.002;11.854;2023-07-29T01:31:35;4.27;;;3.47;;
46729;SDS011;32476;50.002;11.854;2023-07-29T01:34:22;4.47;;;3.20;;
46729;SDS011;32476;50.002;11.854;2023-07-29T01:36:59;3.50;;;2.87;;
46729;SDS011;32476;50.002;11.854;2023-07-29T01:39:29;4.33;;;3.80;;
46729;SDS011;32476;50.002;11.854;2023-07-29T01:42:01;5.77;;;4.00;;
46729;SDS011;32476;50.002;11.854;2023-07-29T01:44:27;5.53;;;4.33;;
46729;SDS011;32476;50.002;11.854;2023-07-29T01:46:55;5.97;;;5.30;;
46729;SDS011;32476;50.002;11.854;2023-07-29T01:49:23;8.27;;;6.37;;
46729;SDS011;32476;50.002;11.854;2023-07-29T01:51:49;7.57;;;5.47;;
46729;SDS011;32476;50.002;11.854;2023-07-29T01:54:15;6.97;;;6.27;;
46729;SDS011;32476;50.002;11.854;2023-07-29T01:56:42;11.17;;;6.77;;
46729;SDS011;32476;50.002;11.854;2023-07-29T01:59:08;10.60;;;6.40;;
46729;SDS011;32476;50.002;11.854;2023-07-29T02:01:34;9.07;;;6.90;;
46729;SDS011;32476;50.002;11.854;2023-07-29T02:04:02;7.97;;;6.47;;
46729;SDS011;32476;50.002;11.854;2023-07-29T02:06:28;9.57;;;6.53;;
46729;SDS011;32476;50.002;11.854;2023-07-29T02:08:55;9.63;;;6.90;;
46729;SDS011;32476;50.002;11.854;2023-07-29T02:11:22;8.27;;;7.17;;
46729;SDS011;32476;50.002;11.854;2023-07-29T02:13:53;9.97;;;7.53;;
46729;SDS011;32476;50.002;11.854;2023-07-29T02:16:20;10.50;;;7.10;;
46729;SDS011;32476;50.002;11.854;2023-07-29T02:18:49;8.43;;;7.63;;
46729;SDS011;32476;50.002;11.854;2023-07-29T02:21:15;9.67;;;8.60;;
46729;SDS011;32476;50.002;11.854;2023-07-29T02:23:42;8.90;;;7.50;;
46729;SDS011;32476;50.002;11.854;2023-07-29T02:26:09;11.17;;;9.27;;
46729;SDS011;32476;50.002;11.854;2023-07-29T02:28:35;18.90;;;8.93;;
46729;SDS011;32476;50.002;11.854;2023-07-29T02:31:23;13.57;;;9.47;;
46729;SDS011;32476;50.002;11.854;2023-07-29T02:33:52;16.23;;;10.07;;
46729;SDS011;32476;50.002;11.854;2023-07-29T02:36:18;20.83;;;10.63;;
46729;SDS011;32476;50.002;11.854;2023-07-29T02:38:44;11.97;;;8.97;;
46729;SDS011;32476;50.002;11.854;2023-07-29T02:41:12;25.43;;;10.40;;
46729;SDS011;32476;50.002;11.854;2023-07-29T02:43:38;18.33;;;9.60;;
46729;SDS011;32476;50.002;11.854;2023-07-29T02:46:06;18.80;;;10.00;;
46729;SDS011;32476;50.002;11.854;2023-07-29T02:48:33;16.77;;;9.97;;
46729;SDS011;32476;50.002;11.854;2023-07-29T02:50:59;18.10;;;10.90;;
46729;SDS011;32476;50.002;11.854;2023-07-29T02:53:25;15.20;;;10.57;;
46729;SDS011;32476;50.002;11.854;2023-07-29T02:55:53;21.33;;;12.10;;
46729;SDS011;32476;50.002;11.854;2023-07-29T02:58:19;33.77;;;12.27;;
46729;SDS011;32476;50.002;11.854;2023-07-29T03:00:45;22.87;;;11.30;;
46729;SDS011;32476;50.002;11.854;2023-07-29T03:03:14;24.80;;;12.60;;
46729;SDS011;32476;50.002;11.854;2023-07-29T03:05:40;20.73;;;11.13;;
46729;SDS011;32476;50.002;11.854;2023-07-29T03:08:06;14.63;;;10.83;;
46729;SDS011;32476;50.002;11.854;2023-07-29T03:10:42;16.23;;;10.87;;
46729;SDS011;32476;50.002;11.854;2023-07-29T03:13:08;11.93;;;9.57;;
46729;SDS011;32476;50.002;11.854;2023-07-29T03:15:34;12.03;;;9.50;;
46729;SDS011;32476;50.002;11.854;2023-07-29T03:18:01;11.47;;;10.23;;
46729;SDS011;32476;50.002;11.854;2023-07-29T03:20:27;10.37;;;9.27;;
46729;SDS011;32476;50.002;11.854;2023-07-29T03:22:53;11.60;;;8.67;;
46729;SDS011;32476;50.002;11.854;2023-07-29T03:25:21;1398.87;;;710.40;;
46729;SDS011;32476;50.002;11.854;2023-07-29T03:27:47;98.17;;;25.77;;
46729;SDS011;32476;50.002;11.854;2023-07-29T03:30:14;1999.90;;;999.90;;
46729;SDS011;32476;50.002;11.854;2023-07-29T03:32:43;1999.90;;;999.90;;
46729;SDS011;32476;50.002;11.854;2023-07-29T03:35:10;1999.90;;;999.90;;
46729;SDS011;32476;50.002;11.854;2023-07-29T03:37:36;1999.90;;;999.90;;
46729;SDS011;32476;50.002;11.854;2023-07-29T03:40:04;1999.90;;;999.90;;
46729;SDS011;32476;50.002;11.854;2023-07-29T03:42:31;1999.90;;;999.90;;
46729;SDS011;32476;50.002;11.854;2023-07-29T03:44:57;1999.90;;;999.90;;
46729;SDS011;32476;50.002;11.854;2023-07-29T03:47:25;1999.90;;;999.90;;
46729;SDS011;32476;50.002;11.854;2023-07-29T03:49:50;1999.90;;;999.90;;
46729;SDS011;32476;50.002;11.854;2023-07-29T03:52:16;1999.90;;;999.90;;
46729;SDS011;32476;50.002;11.854;2023-07-29T03:54:44;1999.90;;;999.90;;
46729;SDS011;32476;50.002;11.854;2023-07-29T03:57:10;1999.90;;;999.90;;
46729;SDS011;32476;50.002;11.854;2023-07-29T03:59:36;1999.90;;;999.90;;
46729;SDS011;32476;50.002;11.854;2023-07-29T04:02:03;1999.90;;;999.90;;
46729;SDS011;32476;50.002;11.854;2023-07-29T04:04:29;1999.90;;;999.90;;
46729;SDS011;32476;50.002;11.854;2023-07-29T04:06:55;1999.90;;;999.90;;
46729;SDS011;32476;50.002;11.854;2023-07-29T04:09:23;1999.90;;;999.90;;
46729;SDS011;32476;50.002;11.854;2023-07-29T04:11:49;1999.90;;;999.90;;
46729;SDS011;32476;50.002;11.854;2023-07-29T04:14:16;1999.90;;;999.90;;
46729;SDS011;32476;50.002;11.854;2023-07-29T04:16:43;1999.90;;;999.90;;
46729;SDS011;32476;50.002;11.854;2023-07-29T04:19:10;1999.90;;;999.90;;
46729;SDS011;32476;50.002;11.854;2023-07-29T04:21:36;1999.90;;;999.90;;
46729;SDS011;32476;50.002;11.854;2023-07-29T04:24:04;1999.90;;;999.90;;
46729;SDS011;32476;50.002;11.854;2023-07-29T04:26:30;1999.90;;;999.90;;
46729;SDS011;32476;50.002;11.854;2023-07-29T04:29:05;1999.90;;;999.90;;
46729;SDS011;32476;50.002;11.854;2023-07-29T04:31:31;1999.90;;;999.90;;
46729;SDS011;32476;50.002;11.854;2023-07-29T04:33:56;1999.90;;;999.90;;
46729;SDS011;32476;50.002;11.854;2023-07-29T04:36:24;1999.90;;;999.90;;
46729;SDS011;32476;50.002;11.854;2023-07-29T04:38:50;1999.90;;;999.90;;
46729;SDS011;32476;50.002;11.854;2023-07-29T04:41:16;1999.90;;;999.90;;
46729;SDS011;32476;50.002;11.854;2023-07-29T04:43:43;1999.90;;;999.90;;
46729;SDS011;32476;50.002;11.854;2023-07-29T04:46:09;1999.90;;;999.90;;
46729;SDS011;32476;50.002;11.854;2023-07-29T04:48:35;1999.90;;;999.90;;
46729;SDS011;32476;50.002;11.854;2023-07-29T04:51:03;1999.90;;;999.90;;
46729;SDS011;32476;50.002;11.854;2023-07-29T04:53:28;1999.90;;;999.90;;
46729;SDS011;32476;50.002;11.854;2023-07-29T04:55:55;1999.90;;;999.90;;
46729;SDS011;32476;50.002;11.854;2023-07-29T04:58:22;1999.90;;;999.90;;
46729;SDS011;32476;50.002;11.854;2023-07-29T05:00:48;1999.90;;;999.90;;
46729;SDS011;32476;50.002;11.854;2023-07-29T05:03:14;1999.90;;;999.90;;
46729;SDS011;32476;50.002;11.854;2023-07-29T05:05:42;1999.90;;;999.90;;
46729;SDS011;32476;50.002;11.854;2023-07-29T05:08:08;1999.90;;;999.90;;
46729;SDS011;32476;50.002;11.854;2023-07-29T05:10:34;1999.90;;;999.90;;
46729;SDS011;32476;50.002;11.854;2023-07-29T05:13:01;1999.90;;;999.90;;
46729;SDS011;32476;50.002;11.854;2023-07-29T05:15:28;1999.90;;;999.90;;
46729;SDS011;32476;50.002;11.854;2023-07-29T05:17:54;1999.90;;;999.90;;
46729;SDS011;32476;50.002;11.854;2023-07-29T05:20:21;1999.90;;;999.90;;
46729;SDS011;32476;50.002;11.854;2023-07-29T05:22:47;1999.90;;;999.90;;
46729;SDS011;32476;50.002;11.854;2023-07-29T05:25:13;1999.90;;;999.90;;
46729;SDS011;32476;50.002;11.854;2023-07-29T05:27:40;1999.90;;;999.90;;
46729;SDS011;32476;50.002;11.854;2023-07-29T05:30:07;1999.90;;;999.90;;
46729;SDS011;32476;50.002;11.854;2023-07-29T05:32:33;1999.90;;;999.90;;
46729;SDS011;32476;50.002;11.854;2023-07-29T05:35:00;1999.90;;;999.90;;
46729;SDS011;32476;50.002;11.854;2023-07-29T05:37:26;1999.90;;;999.90;;
46729;SDS011;32476;50.002;11.854;2023-07-29T05:39:52;74.97;;;31.03;;
46729;SDS011;32476;50.002;11.854;2023-07-29T05:42:20;458.03;;;190.80;;
46729;SDS011;32476;50.002;11.854;2023-07-29T05:44:46;1999.90;;;999.90;;
46729;SDS011;32476;50.002;11.854;2023-07-29T05:47:12;1999.90;;;999.90;;
46729;SDS011;32476;50.002;11.854;2023-07-29T05:49:39;1999.90;;;999.90;;
46729;SDS011;32476;50.002;11.854;2023-07-29T05:52:05;1999.90;;;999.90;;
46729;SDS011;32476;50.002;11.854;2023-07-29T05:54:31;1999.90;;;999.90;;
46729;SDS011;32476;50.002;11.854;2023-07-29T05:56:59;1999.90;;;999.90;;
46729;SDS011;32476;50.002;11.854;2023-07-29T05:59:25;1999.90;;;999.90;;
46729;SDS011;32476;50.002;11.854;2023-07-29T06:01:54;1999.90;;;999.90;;
46729;SDS011;32476;50.002;11.854;2023-07-29T06:04:22;1999.90;;;999.90;;
46729;SDS011;32476;50.002;11.854;2023-07-29T06:06:48;1999.90;;;999.90;;
46729;SDS011;32476;50.002;11.854;2023-07-29T06:09:14;1999.90;;;999.90;;
46729;SDS011;32476;50.002;11.854;2023-07-29T06:11:41;2.58;;;2.38;;
46729;SDS011;32476;50.002;11.854;2023-07-29T06:14:07;3.65;;;2.22;;
46729;SDS011;32476;50.002;11.854;2023-07-29T06:16:33;5.63;;;2.80;;
46729;SDS011;32476;50.002;11.854;2023-07-29T06:19:01;6.85;;;2.65;;
46729;SDS011;32476;50.002;11.854;2023-07-29T06:21:27;3.70;;;2.40;;
46729;SDS011;32476;50.002;11.854;2023-07-29T06:23:53;4.03;;;2.80;;
46729;SDS011;32476;50.002;11.854;2023-07-29T06:26:20;3.03;;;2.38;;
46729;SDS011;32476;50.002;11.854;2023-07-29T06:28:46;4.22;;;2.30;;
46729;SDS011;32476;50.002;11.854;2023-07-29T06:31:12;4.38;;;2.40;;
46729;SDS011;32476;50.002;11.854;2023-07-29T06:33:39;3.73;;;2.37;;
46729;SDS011;32476;50.002;11.854;2023-07-29T06:36:05;2.45;;;2.15;;
46729;SDS011;32476;50.002;11.854;2023-07-29T06:38:31;2.50;;;2.30;;
46729;SDS011;32476;50.002;11.854;2023-07-29T06:40:59;2.90;;;2.40;;
46729;SDS011;32476;50.002;11.854;2023-07-29T06:43:24;3.38;;;2.10;;
46729;SDS011;32476;50.002;11.854;2023-07-29T06:45:50;2.00;;;1.80;;
46729;SDS011;32476;50.002;11.854;2023-07-29T06:48:18;2.00;;;1.88;;
46729;SDS011;32476;50.002;11.854;2023-07-29T06:50:45;1.70;;;1.60;;
46729;SDS011;32476;50.002;11.854;2023-07-29T06:53:11;2.67;;;2.05;;
46729;SDS011;32476;50.002;11.854;2023-07-29T06:55:38;2.13;;;1.80;;
46729;SDS011;32476;50.002;11.854;2023-07-29T06:58:05;2.10;;;1.90;;
46729;SDS011;32476;50.002;11.854;2023-07-29T07:00:31;1.50;;;1.40;;
46729;SDS011;32476;50.002;11.854;2023-07-29T07:02:58;568.58;;;104.57;;
46729;SDS011;32476;50.002;11.854;2023-07-29T07:05:24;3.13;;;1.58;;
46729;SDS011;32476;50.002;11.854;2023-07-29T07:07:50;1.60;;;1.50;;
46729;SDS011;32476;50.002;11.854;2023-07-29T07:10:18;2.75;;;1.50;;
46729;SDS011;32476;50.002;11.854;2023-07-29T07:12:44;1.95;;;1.35;;
46729;SDS011;32476;50.002;11.854;2023-07-29T07:15:10;1.60;;;1.50;;
46729;SDS011;32476;50.002;11.854;2023-07-29T07:17:37;1.33;;;1.23;;
46729;SDS011;32476;50.002;11.854;2023-07-29T07:20:04;2.13;;;1.40;;
46729;SDS011;32476;50.002;11.854;2023-07-29T07:22:31;2.63;;;1.40;;
46729;SDS011;32476;50.002;11.854;2023-07-29T07:24:59;1.80;;;1.27;;
46729;SDS011;32476;50.002;11.854;2023-07-29T07:27:24;2.60;;;1.60;;
46729;SDS011;32476;50.002;11.854;2023-07-29T07:29:50;1.80;;;1.48;;
46729;SDS011;32476;50.002;11.854;2023-07-29T07:32:18;2.25;;;1.85;;
46729;SDS011;32476;50.002;11.854;2023-07-29T07:34:44;6.43;;;1.60;;
46729;SDS011;32476;50.002;11.854;2023-07-29T07:37:10;2.80;;;1.85;;
46729;SDS011;32476;50.002;11.854;2023-07-29T07:39:37;1.95;;;1.50;;
46729;SDS011;32476;50.002;11.854;2023-07-29T07:42:03;2.08;;;1.60;;
46729;SDS011;32476;50.002;11.854;2023-07-29T07:44:29;1.67;;;1.55;;
46729;SDS011;32476;50.002;11.854;2023-07-29T07:46:57;3.58;;;2.05;;
46729;SDS011;32476;50.002;11.854;2023-07-29T07:49:23;4.97;;;1.45;;
46729;SDS011;32476;50.002;11.854;2023-07-29T07:51:49;4.07;;;1.83;;
46729;SDS011;32476;50.002;11.854;2023-07-29T07:54:16;5.53;;;1.80;;
46729;SDS011;32476;50.002;11.854;2023-07-29T07:56:43;3.20;;;1.60;;
46729;SDS011;32476;50.002;11.854;2023-07-29T07:59:08;2.78;;;1.70;;
46729;SDS011;32476;50.002;11.854;2023-07-29T08:01:37;2.35;;;1.90;;
46729;SDS011;32476;50.002;11.854;2023-07-29T08:04:05;3.72;;;1.75;;
46729;SDS011;32476;50.002;11.854;2023-07-29T08:06:31;6.13;;;2.13;;
46729;SDS011;32476;50.002;11.854;2023-07-29T08:08:59;3.47;;;1.90;;
46729;SDS011;32476;50.002;11.854;2023-07-29T08:11:25;2.33;;;1.80;;
46729;SDS011;32476;50.002;11.854;2023-07-29T08:13:51;4.05;;;1.52;;
46729;SDS011;32476;50.002;11.854;2023-07-29T08:16:19;4.82;;;1.48;;
46729;SDS011;32476;50.002;11.854;2023-07-29T08:18:45;3.80;;;1.27;;
46729;SDS011;32476;50.002;11.854;2023-07-29T08:21:12;0.80;;;0.80;;
46729;SDS011;32476;50.002;11.854;2023-07-29T08:23:40;3.83;;;1.05;;
46729;SDS011;32476;50.002;11.854;2023-07-29T08:26:06;0.55;;;0.50;;
46729;SDS011;32476;50.002;11.854;2023-07-29T08:28:32;0.68;;;0.60;;
46729;SDS011;32476;50.002;11.854;2023-07-29T08:31:06;1.20;;;0.73;;
46729;SDS011;32476;50.002;11.854;2023-07-29T08:33:33;1.63;;;0.80;;
46729;SDS011;32476;50.002;11.854;2023-07-29T08:36:00;1.33;;;0.70;;
46729;SDS011;32476;50.002;11.854;2023-07-29T08:38:28;1.33;;;0.50;;
46729;SDS011;32476;50.002;11.854;2023-07-29T08:40:58;1.13;;;0.60;;
46729;SDS011;32476;50.002;11.854;2023-07-29T08:43:49;1.30;;;0.38;;
46729;SDS011;32476;50.002;11.854;2023-07-29T08:46:29;1.75;;;0.50;;
46729;SDS011;32476;50.002;11.854;2023-07-29T08:48:57;2.83;;;0.80;;
46729;SDS011;32476;50.002;11.854;2023-07-29T08:51:24;1.60;;;1.13;;
46729;SDS011;32476;50.002;11.854;2023-07-29T08:53:52;1.05;;;0.85;;
46729;SDS011;32476;50.002;11.854;2023-07-29T08:56:20;1.15;;;1.00;;
46729;SDS011;32476;50.002;11.854;2023-07-29T08:58:46;2.67;;;1.23;;
46729;SDS011;32476;50.002;11.854;2023-07-29T09:01:13;2.55;;;1.70;;
46729;SDS011;32476;50.002;11.854;2023-07-29T09:03:42;1.35;;;1.23;;
46729;SDS011;32476;50.002;11.854;2023-07-29T09:06:08;1.47;;;1.30;;
46729;SDS011;32476;50.002;11.854;2023-07-29T09:08:34;2.63;;;1.48;;
46729;SDS011;32476;50.002;11.854;2023-07-29T09:11:02;1.35;;;1.25;;
46729;SDS011;32476;50.002;11.854;2023-07-29T09:13:28;1.77;;;1.50;;
46729;SDS011;32476;50.002;11.854;2023-07-29T09:15:55;3.00;;;1.77;;
46729;SDS011;32476;50.002;11.854;2023-07-29T09:18:25;2.03;;;1.40;;
46729;SDS011;32476;50.002;11.854;2023-07-29T09:20:52;3.15;;;1.50;;
46729;SDS011;32476;50.002;11.854;2023-07-29T09:23:19;3.28;;;1.73;;
46729;SDS011;32476;50.002;11.854;2023-07-29T09:25:47;1.60;;;1.30;;
46729;SDS011;32476;50.002;11.854;2023-07-29T09:28:13;2.97;;;1.80;;
46729;SDS011;32476;50.002;11.854;2023-07-29T09:30:42;2.38;;;1.85;;
46729;SDS011;32476;50.002;11.854;2023-07-29T09:33:13;2.00;;;1.20;;
46729;SDS011;32476;50.002;11.854;2023-07-29T09:35:39;2.38;;;1.20;;
46729;SDS011;32476;50.002;11.854;2023-07-29T09:38:05;2.20;;;1.52;;
46729;SDS011;32476;50.002;11.854;2023-07-29T09:40:37;2.22;;;1.45;;
46729;SDS011;32476;50.002;11.854;2023-07-29T09:43:05;1.23;;;1.13;;
46729;SDS011;32476;50.002;11.854;2023-07-29T09:45:35;2.03;;;1.30;;
46729;SDS011;32476;50.002;11.854;2023-07-29T09:48:03;1.30;;;1.20;;
46729;SDS011;32476;50.002;11.854;2023-07-29T09:50:35;3.43;;;1.37;;
46729;SDS011;32476;50.002;11.854;2023-07-29T09:53:02;2.35;;;1.85;;
46729;SDS011;32476;50.002;11.854;2023-07-29T09:55:28;2.03;;;1.60;;
46729;SDS011;32476;50.002;11.854;2023-07-29T09:57:56;3.13;;;1.70;;
46729;SDS011;32476;50.002;11.854;2023-07-29T10:00:27;2.37;;;1.70;;
46729;SDS011;32476;50.002;11.854;2023-07-29T10:02:56;5.47;;;2.00;;
46729;SDS011;32476;50.002;11.854;2023-07-29T10:05:25;3.70;;;1.90;;
46729;SDS011;32476;50.002;11.854;2023-07-29T10:07:53;6.28;;;1.60;;
46729;SDS011;32476;50.002;11.854;2023-07-29T10:10:22;1.58;;;1.48;;
46729;SDS011;32476;50.002;11.854;2023-07-29T10:12:49;3.13;;;1.40;;
46729;SDS011;32476;50.002;11.854;2023-07-29T10:15:15;1.80;;;1.38;;
46729;SDS011;32476;50.002;11.854;2023-07-29T10:17:44;4.10;;;1.65;;
46729;SDS011;32476;50.002;11.854;2023-07-29T10:20:11;2.05;;;1.40;;
46729;SDS011;32476;50.002;11.854;2023-07-29T10:22:38;3.03;;;1.20;;
46729;SDS011;32476;50.002;11.854;2023-07-29T10:27:52;2.03;;;1.58;;
46729;SDS011;32476;50.002;11.854;2023-07-29T10:30:24;2.65;;;1.45;;
46729;SDS011;32476;50.002;11.854;2023-07-29T10:32:50;1.70;;;1.20;;
46729;SDS011;32476;50.002;11.854;2023-07-29T10:35:18;2.55;;;1.20;;
46729;SDS011;32476;50.002;11.854;2023-07-29T10:37:46;3.58;;;1.73;;
46729;SDS011;32476;50.002;11.854;2023-07-29T10:40:16;3.38;;;1.70;;
46729;SDS011;32476;50.002;11.854;2023-07-29T10:43:02;2.95;;;1.55;;
46729;SDS011;32476;50.002;11.854;2023-07-29T10:45:37;3.58;;;1.55;;
46729;SDS011;32476;50.002;11.854;2023-07-29T10:48:05;2.95;;;1.80;;
46729;SDS011;32476;50.002;11.854;2023-07-29T10:53:52;4.60;;;2.10;;
46729;SDS011;32476;50.002;11.854;2023-07-29T10:56:28;4.97;;;1.98;;
46729;SDS011;32476;50.002;11.854;2023-07-29T11:01:50;3.08;;;1.70;;
46729;SDS011;32476;50.002;11.854;2023-07-29T11:04:22;2.10;;;1.90;;
46729;SDS011;32476;50.002;11.854;2023-07-29T11:09:55;2.55;;;1.75;;
46729;SDS011;32476;50.002;11.854;2023-07-29T11:12:34;2.40;;;1.80;;
46729;SDS011;32476;50.002;11.854;2023-07-29T11:15:28;3.30;;;1.63;;
46729;SDS011;32476;50.002;11.854;2023-07-29T11:18:00;1.98;;;1.80;;
46729;SDS011;32476;50.002;11.854;2023-07-29T11:20:28;2.00;;;1.80;;
46729;SDS011;32476;50.002;11.854;2023-07-29T11:22:58;3.33;;;1.40;;
46729;SDS011;32476;50.002;11.854;2023-07-29T11:25:27;2.15;;;1.50;;
46729;SDS011;32476;50.002;11.854;2023-07-29T11:27:58;2.00;;;1.52;;
46729;SDS011;32476;50.002;11.854;2023-07-29T11:30:28;3.60;;;1.67;;
46729;SDS011;32476;50.002;11.854;2023-07-29T11:32:58;1.73;;;1.38;;
46729;SDS011;32476;50.002;11.854;2023-07-29T11:35:24;2.67;;;1.50;;
46729;SDS011;32476;50.002;11.854;2023-07-29T11:37:51;2.97;;;1.67;;
46729;SDS011;32476;50.002;11.854;2023-07-29T11:40:22;1.65;;;1.55;;
46729;SDS011;32476;50.002;11.854;2023-07-29T11:42:49;6.88;;;1.63;;
46729;SDS011;32476;50.002;11.854;2023-07-29T11:45:16;2.10;;;1.58;;
46729;SDS011;32476;50.002;11.854;2023-07-29T11:47:45;2.10;;;1.48;;
46729;SDS011;32476;50.002;11.854;2023-07-29T11:50:13;1.65;;;1.52;;
46729;SDS011;32476;50.002;11.854;2023-07-29T11:52:40;3.05;;;1.50;;
46729;SDS011;32476;50.002;11.854;2023-07-29T11:55:13;2.67;;;1.65;;
46729;SDS011;32476;50.002;11.854;2023-07-29T11:57:41;2.83;;;1.70;;
46729;SDS011;32476;50.002;11.854;2023-07-29T12:00:08;1.38;;;1.27;;
46729;SDS011;32476;50.002;11.854;2023-07-29T12:02:40;4.93;;;1.40;;
46729;SDS011;32476;50.002;11.854;2023-07-29T12:05:09;2.92;;;1.20;;
46729;SDS011;32476;50.002;11.854;2023-07-29T12:07:37;1.23;;;1.13;;
46729;SDS011;32476;50.002;11.854;2023-07-29T12:10:06;1.88;;;1.33;;
46729;SDS011;32476;50.002;11.854;2023-07-29T12:12:32;1.48;;;1.17;;
46729;SDS011;32476;50.002;11.854;2023-07-29T12:14:58;1.98;;;1.13;;
46729;SDS011;32476;50.002;11.854;2023-07-29T12:17:25;1.60;;;1.50;;
46729;SDS011;32476;50.002;11.854;2023-07-29T12:19:53;1.30;;;1.20;;
46729;SDS011;32476;50.002;11.854;2023-07-29T12:22:20;2.72;;;1.20;;
46729;SDS011;32476;50.002;11.854;2023-07-29T12:24:48;5.40;;;2.03;;
46729;SDS011;32476;50.002;11.854;2023-07-29T12:27:17;3.45;;;1.25;;
46729;SDS011;32476;50.002;11.854;2023-07-29T12:29:48;4.00;;;1.55;;
46729;SDS011;32476;50.002;11.854;2023-07-29T12:32:17;2.95;;;1.80;;
46729;SDS011;32476;50.002;11.854;2023-07-29T12:34:43;1.73;;;1.17;;
46729;SDS011;32476;50.002;11.854;2023-07-29T12:37:11;2.38;;;1.23;;
46729;SDS011;32476;50.002;11.854;2023-07-29T12:39:39;1.45;;;1.30;;
46729;SDS011;32476;50.002;11.854;2023-07-29T12:42:10;1.20;;;1.05;;
46729;SDS011;32476;50.002;11.854;2023-07-29T12:44:37;4.32;;;1.40;;
46729;SDS011;32476;50.002;11.854;2023-07-29T12:47:04;3.55;;;1.40;;
46729;SDS011;32476;50.002;11.854;2023-07-29T12:49:33;3.15;;;1.52;;
46729;SDS011;32476;50.002;11.854;2023-07-29T12:51:59;5.20;;;1.40;;
46729;SDS011;32476;50.002;11.854;2023-07-29T12:54:25;3.53;;;1.50;;
46729;SDS011;32476;50.002;11.854;2023-07-29T12:56:53;3.00;;;1.95;;
46729;SDS011;32476;50.002;11.854;2023-07-29T12:59:19;2.42;;;1.55;;
46729;SDS011;32476;50.002;11.854;2023-07-29T13:01:45;4.30;;;1.50;;
46729;SDS011;32476;50.002;11.854;2023-07-29T13:04:12;2.85;;;1.50;;
46729;SDS011;32476;50.002;11.854;2023-07-29T13:06:38;4.47;;;1.80;;
46729;SDS011;32476;50.002;11.854;2023-07-29T13:09:04;3.58;;;1.95;;
46729;SDS011;32476;50.002;11.854;2023-07-29T13:11:32;2.22;;;1.70;;
46729;SDS011;32476;50.002;11.854;2023-07-29T13:13:59;2.67;;;1.60;;
46729;SDS011;32476;50.002;11.854;2023-07-29T13:16:26;4.15;;;1.98;;
46729;SDS011;32476;50.002;11.854;2023-07-29T13:18:58;3.15;;;1.63;;
46729;SDS011;32476;50.002;11.854;2023-07-29T13:21:24;1.92;;;1.60;;
46729;SDS011;32476;50.002;11.854;2023-07-29T13:23:51;2.35;;;1.63;;
46729;SDS011;32476;50.002;11.854;2023-07-29T13:26:18;6.35;;;1.67;;
46729;SDS011;32476;50.002;11.854;2023-07-29T13:28:44;1.65;;;1.27;;
46729;SDS011;32476;50.002;11.854;2023-07-29T13:31:10;2.22;;;1.13;;
46729;SDS011;32476;50.002;11.854;2023-07-29T13:33:38;6.78;;;1.30;;
46729;SDS011;32476;50.002;11.854;2023-07-29T13:36:04;3.30;;;1.45;;
46729;SDS011;32476;50.002;11.854;2023-07-29T13:38:30;5.32;;;4.13;;
46729;SDS011;32476;50.002;11.854;2023-07-29T13:40:58;8.05;;;6.15;;
46729;SDS011;32476;50.002;11.854;2023-07-29T13:43:24;34.22;;;23.38;;
46729;SDS011;32476;50.002;11.854;2023-07-29T13:45:50;22.25;;;14.20;;
46729;SDS011;32476;50.002;11.854;2023-07-29T13:48:18;9.25;;;5.10;;
46729;SDS011;32476;50.002;11.854;2023-07-29T13:50:45;13.85;;;7.90;;
46729;SDS011;32476;50.002;11.854;2023-07-29T13:53:11;3.83;;;2.17;;
46729;SDS011;32476;50.002;11.854;2023-07-29T13:55:38;3.28;;;1.40;;
46729;SDS011;32476;50.002;11.854;2023-07-29T13:58:04;6.75;;;2.47;;
46729;SDS011;32476;50.002;11.854;2023-07-29T14:00:30;1.77;;;1.50;;
46729;SDS011;32476;50.002;11.854;2023-07-29T14:02:57;2.83;;;1.83;;
46729;SDS011;32476;50.002;11.854;2023-07-29T14:05:23;2.13;;;1.80;;
46729;SDS011;32476;50.002;11.854;2023-07-29T14:07:49;2.38;;;1.95;;
46729;SDS011;32476;50.002;11.854;2023-07-29T14:10:17;2.53;;;1.70;;
46729;SDS011;32476;50.002;11.854;2023-07-29T14:12:43;2.58;;;1.90;;
46729;SDS011;32476;50.002;11.854;2023-07-29T14:15:09;1.85;;;1.48;;
46729;SDS011;32476;50.002;11.854;2023-07-29T14:17:36;3.63;;;1.83;;
46729;SDS011;32476;50.002;11.854;2023-07-29T14:20:05;3.17;;;1.60;;
46729;SDS011;32476;50.002;11.854;2023-07-29T14:22:32;1.83;;;1.58;;
46729;SDS011;32476;50.002;11.854;2023-07-29T14:24:59;2.70;;;1.60;;
46729;SDS011;32476;50.002;11.854;2023-07-29T14:27:25;2.47;;;1.70;;
46729;SDS011;32476;50.002;11.854;2023-07-29T14:29:51;2.08;;;1.70;;
46729;SDS011;32476;50.002;11.854;2023-07-29T14:32:19;3.60;;;1.65;;
46729;SDS011;32476;50.002;11.854;2023-07-29T14:34:45;2.47;;;1.95;;
46729;SDS011;32476;50.002;11.854;2023-07-29T14:37:11;2.38;;;1.90;;
46729;SDS011;32476;50.002;11.854;2023-07-29T14:39:38;5.97;;;1.98;;